Time;durP1;ratioP1;P1;durP2;ratioP2;P2;SDS_P1;SDS_P2;PMS_P1;PMS_P2;Temp;Humidity;BMP_temperature;BMP_pressure;BME280_temperature;BME280_humidity;BME280_pressure;Samples;Min_cycle;Max_cycle;Signal;HPM_P1;HPM_P2
2022/09/23 00:01:04;;;;;;;2.60;2.22;;;;;;;10.33;84.43;97129.09;5044163;28;20049;-69
2022/09/23 00:03:31;;;;;;;3.42;2.47;;;;;;;10.01;85.15;97083.34;5042510;28;20060;-68
2022/09/23 00:06:00;;;;;;;3.22;2.80;;;;;;;10.21;85.16;97123.69;5042983;28;20130;-69
2022/09/23 00:08:27;;;;;;;3.47;2.22;;;;;;;9.61;85.69;97074.59;5044276;28;20056;-68
2022/09/23 00:10:55;;;;;;;2.65;2.42;;;;;;;9.93;85.47;97108.47;5043763;28;20088;-68
2022/09/23 00:13:24;;;;;;;4.03;2.60;;;;;;;9.91;86.55;97125.44;5044407;28;20161;-68
2022/09/23 00:15:51;;;;;;;3.35;2.40;;;;;;;8.89;86.76;96953.81;5043888;28;20053;-68
2022/09/23 00:18:19;;;;;;;2.85;2.17;;;;;;;9.94;86.38;97133.00;5043923;28;20147;-67
2022/09/23 00:20:46;;;;;;;4.22;2.30;;;;;;;9.36;86.84;97023.50;5043740;28;20508;-69
2022/09/23 00:23:13;;;;;;;2.40;2.17;;;;;;;9.94;87.07;97144.06;5042529;28;20076;-70
2022/09/23 00:25:40;;;;;;;7.07;2.97;;;;;;;9.43;86.80;97029.22;5043941;28;20053;-69
2022/09/23 00:28:06;;;;;;;3.35;2.30;;;;;;;9.88;87.18;97128.91;5045632;28;20053;-68
2022/09/23 00:30:33;;;;;;;3.30;2.53;;;;;;;9.81;86.98;97111.38;5047931;28;20521;-69
2022/09/23 00:33:00;;;;;;;2.80;2.28;;;;;;;9.77;87.78;97100.22;5047901;28;20056;-70
2022/09/23 00:35:26;;;;;;;4.10;2.97;;;;;;;9.74;87.97;97100.97;5047887;28;20543;-68
2022/09/23 00:37:53;;;;;;;3.17;2.53;;;;;;;9.71;88.73;97107.22;5047826;28;20084;-69
2022/09/23 00:40:20;;;;;;;2.97;2.67;;;;;;;9.29;88.95;97044.69;5046221;28;20080;-69
2022/09/23 00:42:48;;;;;;;3.00;2.28;;;;;;;9.32;89.64;97080.69;5047987;28;20053;-68
2022/09/23 00:45:15;;;;;;;3.15;2.78;;;;;;;8.42;88.72;96922.78;5047518;28;20483;-69
2022/09/23 00:48:01;;;;;;;3.42;2.50;;;;;;;9.50;88.87;97092.94;5047652;28;20462;-69
2022/09/23 00:50:41;;;;;;;3.17;2.35;;;;;;;8.66;89.07;96969.47;5046408;28;20468;-69
2022/09/23 00:53:14;;;;;;;3.72;2.65;;;;;;;7.92;89.28;96876.59;5047994;28;20114;-69
2022/09/23 00:55:48;;;;;;;5.35;2.63;;;;;;;8.31;93.65;97040.38;5047484;28;20214;-69
2022/09/23 00:58:19;;;;;;;5.03;2.85;;;;;;;8.63;96.23;97105.50;5047912;28;20503;-68
2022/09/23 01:00:45;;;;;;;4.43;3.20;;;;;;;6.58;96.85;96767.66;5046163;28;20088;-69
2022/09/23 01:03:13;;;;;;;4.00;2.88;;;;;;;8.50;97.39;97095.69;5047042;28;20095;-69
2022/09/23 01:05:40;;;;;;;4.40;3.00;;;;;;;6.06;96.80;96722.94;5046049;28;20045;-68
2022/09/23 01:08:10;;;;;;;4.32;3.40;;;;;;;8.01;96.05;97025.38;5046058;28;20087;-69
2022/09/23 01:11:04;;;;;;;3.30;2.63;;;;;;;8.38;96.53;97091.03;5045469;28;20088;-68
2022/09/23 01:14:06;;;;;;;3.15;2.70;;;;;;;8.35;96.37;97090.94;5047257;28;20092;-68
2022/09/23 01:16:53;;;;;;;4.45;2.45;;;;;;;8.31;96.74;97092.81;5046755;28;20053;-68
2022/09/23 01:19:35;;;;;;;3.05;2.65;;;;;;;8.30;96.93;97088.47;5047080;28;20167;-69
2022/09/23 01:22:26;;;;;;;3.35;2.70;;;;;;;8.28;96.87;97099.84;5046914;28;20462;-69
2022/09/23 01:25:26;;;;;;;4.05;2.58;;;;;;;8.36;96.96;97096.09;5045401;28;20052;-69
2022/09/23 01:28:11;;;;;;;2.80;2.30;;;;;;;8.43;96.01;97095.47;5045689;28;20154;-70
2022/09/23 01:30:44;;;;;;;3.38;2.72;;;;;;;8.39;96.98;97097.38;5046426;28;20591;-69
2022/09/23 01:33:36;;;;;;;2.70;2.50;;;;;;;6.74;95.95;96826.28;5047078;28;20156;-69
2022/09/23 01:36:15;;;;;;;6.15;3.53;;;;;;;8.36;97.43;97098.06;5046288;28;20508;-69
2022/09/23 01:39:06;;;;;;;4.55;2.53;;;;;;;7.63;99.11;97007.41;5046100;28;20131;-69
2022/09/23 01:42:00;;;;;;;3.22;2.58;;;;;;;8.27;98.54;97097.41;5044916;28;20060;-68
2022/09/23 01:44:46;;;;;;;3.53;2.47;;;;;;;8.36;98.20;97100.84;5046451;28;20167;-68
2022/09/23 01:47:18;;;;;;;2.97;2.70;;;;;;;8.40;98.23;97101.72;5046345;28;20049;-69
2022/09/23 01:50:02;;;;;;;5.05;2.50;;;;;;;8.38;97.97;97109.53;5046129;28;20136;-69
2022/09/23 01:52:42;;;;;;;3.33;2.95;;;;;;;7.96;95.88;97017.34;5046587;28;20061;-69
2022/09/23 01:55:24;;;;;;;2.78;2.35;;;;;;;8.52;95.02;97104.41;5045375;28;20491;-70
2022/09/23 01:58:03;;;;;;;3.30;2.60;;;;;;;8.45;95.38;97095.94;5046439;28;20056;-69
2022/09/23 02:00:36;;;;;;;3.03;2.22;;;;;;;8.46;94.43;97105.81;5045752;28;20095;-70
2022/09/23 02:03:12;;;;;;;3.33;2.72;;;;;;;6.15;94.82;96759.31;5045054;28;20132;-69
2022/09/23 02:05:42;;;;;;;2.92;2.33;;;;;;;7.52;94.91;96978.75;5046112;28;20164;-69
2022/09/23 02:08:23;;;;;;;3.60;2.83;;;;;;;8.28;95.20;97104.56;5044768;28;20084;-68
2022/09/23 02:11:10;;;;;;;3.45;2.70;;;;;;;8.21;94.51;97104.31;5044018;28;20060;-69
2022/09/23 02:13:52;;;;;;;3.13;2.35;;;;;;;8.10;94.32;97097.72;5046214;28;20079;-68
2022/09/23 02:16:25;;;;;;;3.28;2.50;;;;;;;7.93;95.87;97111.84;5045533;28;20107;-69
2022/09/23 02:18:58;;;;;;;5.20;2.87;;;;;;;5.19;95.83;96704.53;5045989;28;20045;-69
2022/09/23 02:21:37;;;;;;;4.03;2.53;;;;;;;7.77;96.08;97116.50;5043788;28;20057;-69
2022/09/23 02:24:13;;;;;;;4.80;3.00;;;;;;;7.72;96.09;97110.09;5045956;28;20135;-70
2022/09/23 02:26:52;;;;;;;6.32;3.13;;;;;;;7.76;97.54;97112.13;5044215;28;20056;-69
2022/09/23 02:29:27;;;;;;;5.78;2.63;;;;;;;7.70;98.50;97106.06;5044350;28;20544;-66
2022/09/23 02:32:03;;;;;;;3.50;2.95;;;;;;;7.66;98.77;97103.22;5044421;28;20561;-67
2022/09/23 02:34:50;;;;;;;3.45;2.67;;;;;;;7.63;97.39;97106.66;5045160;28;20061;-66
2022/09/23 02:37:24;;;;;;;3.15;2.70;;;;;;;7.49;97.43;97103.47;5045702;28;20076;-67
2022/09/23 02:40:17;;;;;;;3.95;2.83;;;;;;;7.44;97.57;97098.25;5044165;28;20088;-68
2022/09/23 02:43:02;;;;;;;3.58;2.42;;;;;;;7.57;97.22;97113.56;5045132;28;20525;-67
2022/09/23 02:45:29;;;;;;;4.57;2.53;;;;;;;6.72;96.17;96977.19;5044751;28;21084;-66
2022/09/23 02:48:02;;;;;;;3.72;2.55;;;;;;;7.44;97.35;97103.75;5045658;28;20488;-66
2022/09/23 02:50:31;;;;;;;3.45;2.20;;;;;;;6.32;96.76;96923.28;5044387;28;20093;-66
2022/09/23 02:52:59;;;;;;;3.40;2.42;;;;;;;7.42;96.88;97132.78;5044153;28;20128;-67
2022/09/23 02:55:32;;;;;;;3.97;2.75;;;;;;;7.06;95.96;97064.81;5044855;28;20319;-65
2022/09/23 02:58:00;;;;;;;5.00;2.27;;;;;;;6.84;96.79;97046.03;5045138;28;20146;-68
2022/09/23 03:00:43;;;;;;;3.97;2.10;;;;;;;7.32;96.99;97125.81;5044572;28;20523;-65
2022/09/23 03:03:38;;;;;;;3.88;2.33;;;;;;;7.32;97.50;97123.03;5045324;28;20056;-66
2022/09/23 03:06:35;;;;;;;3.20;2.60;;;;;;;6.07;99.28;96960.97;5043286;28;20139;-66
2022/09/23 03:09:25;;;;;;;4.85;2.83;;;;;;;6.74;97.48;97018.97;5045012;28;20164;-65
2022/09/23 03:12:01;;;;;;;4.00;2.33;;;;;;;7.03;96.35;97073.75;5044138;28;20140;-65
2022/09/23 03:14:39;;;;;;;4.40;2.45;;;;;;;7.12;95.56;97162.56;5043370;28;20664;-64
2022/09/23 03:17:14;;;;;;;3.17;2.38;;;;;;;6.25;94.99;96989.06;5044359;28;20080;-67
2022/09/23 03:20:01;;;;;;;4.13;2.85;;;;;;;7.11;95.94;97116.88;5044656;28;20076;-68
2022/09/23 03:22:33;;;;;;;4.30;3.08;;;;;;;7.06;97.23;97122.63;5044005;28;20143;-65
2022/09/23 03:25:08;;;;;;;3.90;2.70;;;;;;;6.07;98.30;96950.78;5044493;28;20140;-68
2022/09/23 03:27:37;;;;;;;4.80;3.08;;;;;;;6.97;97.65;97083.38;5043213;28;20084;-66
2022/09/23 03:30:06;;;;;;;4.47;2.92;;;;;;;6.89;97.18;97073.28;5044757;28;20104;-66
2022/09/23 03:32:33;;;;;;;7.15;3.40;;;;;;;7.05;96.68;97101.72;5044391;28;20056;-65
2022/09/23 03:35:02;;;;;;;4.10;3.30;;;;;;;7.13;96.64;97100.00;5044327;28;20048;-66
2022/09/23 03:37:34;;;;;;;4.53;2.55;;;;;;;7.23;93.93;97125.13;5042876;28;20136;-66
2022/09/23 03:40:22;;;;;;;3.50;2.22;;;;;;;7.11;94.31;97130.63;5043360;28;20322;-66
2022/09/23 03:42:50;;;;;;;4.88;2.63;;;;;;;7.03;95.67;97122.53;5044575;28;20057;-66
2022/09/23 03:45:22;;;;;;;4.30;3.20;;;;;;;6.66;95.40;97099.69;5042802;28;20087;-67
2022/09/23 03:47:49;;;;;;;4.78;3.40;;;;;;;6.95;94.56;97073.88;5042500;28;20063;-65
2022/09/23 03:50:20;;;;;;;5.15;3.63;;;;;;;3.47;93.97;96583.47;5044369;28;20635;-65
2022/09/23 03:52:48;;;;;;;4.18;3.08;;;;;;;7.00;94.06;97170.81;5044358;28;20089;-66
2022/09/23 03:55:16;;;;;;;6.00;3.08;;;;;;;6.95;94.44;97135.25;5044702;28;20084;-65
2022/09/23 03:57:44;;;;;;;5.28;3.03;;;;;;;5.76;94.85;96960.69;5042937;28;20587;-65
2022/09/23 04:00:12;;;;;;;8.75;3.38;;;;;;;6.92;95.05;97146.16;5044376;28;20076;-66
2022/09/23 04:02:39;;;;;;;4.97;2.78;;;;;;;6.83;95.85;97140.75;5045142;28;20057;-65
2022/09/23 04:05:08;;;;;;;4.43;2.97;;;;;;;6.87;97.07;97144.44;5047964;28;20577;-65
2022/09/23 04:07:34;;;;;;;4.72;3.22;;;;;;;6.88;96.26;97146.03;5046680;28;20049;-64
2022/09/23 04:10:01;;;;;;;5.88;3.47;;;;;;;6.63;96.02;97177.44;5048413;28;20049;-66
2022/09/23 04:12:28;;;;;;;4.00;3.35;;;;;;;6.79;97.28;97141.78;5048146;28;20061;-64
2022/09/23 04:14:54;;;;;;;9.40;4.28;;;;;;;6.18;97.06;97038.34;5048384;28;20472;-65
2022/09/23 04:17:21;;;;;;;6.28;4.47;;;;;;;6.56;96.11;97082.84;5046332;28;20057;-64
2022/09/23 04:19:48;;;;;;;4.45;2.83;;;;;;;6.80;96.64;97143.38;5046316;28;20049;-65
2022/09/23 04:22:14;;;;;;;3.72;2.95;;;;;;;6.90;96.11;97143.75;5047967;28;20139;-65
2022/09/23 04:24:41;;;;;;;8.70;2.90;;;;;;;5.80;95.41;96972.63;5046628;28;20084;-65
2022/09/23 04:27:08;;;;;;;4.95;2.90;;;;;;;7.01;93.43;97144.91;5046109;28;20530;-65
2022/09/23 04:29:34;;;;;;;4.70;3.03;;;;;;;6.18;93.14;97039.94;5046172;28;20107;-66
2022/09/23 04:32:01;;;;;;;3.83;2.53;;;;;;;6.00;93.23;97013.00;5047536;28;20057;-65
2022/09/23 04:34:28;;;;;;;8.77;3.33;;;;;;;6.20;94.02;97036.84;5047508;28;20516;-64
2022/09/23 04:36:54;;;;;;;7.90;5.45;;;;;;;7.00;92.98;97153.50;5046220;28;20091;-64
2022/09/23 04:39:21;;;;;;;6.82;3.95;;;;;;;6.44;92.58;97052.56;5046095;28;20139;-66
2022/09/23 04:41:48;;;;;;;6.43;3.55;;;;;;;5.96;92.75;96998.31;5047176;28;20152;-65
2022/09/23 04:44:14;;;;;;;4.45;3.10;;;;;;;7.31;92.77;97154.50;5045841;28;20083;-67
2022/09/23 04:46:43;;;;;;;8.82;3.42;;;;;;;7.45;92.28;97177.00;5042161;28;20215;-65
2022/09/23 04:49:11;;;;;;;5.93;4.20;;;;;;;7.44;92.37;97150.59;5027737;28;20081;-64
2022/09/23 04:51:42;;;;;;;5.95;3.92;;;;;;;7.70;91.51;97153.72;5042354;28;20076;-64
2022/09/23 04:54:10;;;;;;;4.93;3.72;;;;;;;7.79;91.82;97158.31;5027407;28;20053;-65
2022/09/23 04:56:38;;;;;;;4.53;3.28;;;;;;;5.70;89.46;96816.44;5042195;28;20488;-67
2022/09/23 04:59:05;;;;;;;5.75;3.53;;;;;;;7.92;89.10;97162.63;5027858;28;20198;-66
2022/09/23 05:01:33;;;;;;;4.95;3.20;;;;;;;7.67;88.33;97126.06;5027086;28;20505;-67
2022/09/23 05:04:04;;;;;;;4.95;3.70;;;;;;;7.52;89.56;97111.03;5035570;28;20068;-64
2022/09/23 05:06:35;;;;;;;5.15;3.47;;;;;;;7.71;90.13;97188.41;5047158;28;20057;-64
2022/09/23 05:09:05;;;;;;;4.43;3.22;;;;;;;7.37;90.24;97088.94;5047132;28;20053;-65
2022/09/23 05:11:33;;;;;;;8.23;3.67;;;;;;;7.58;90.51;97097.84;5046807;28;20057;-66
2022/09/23 05:13:59;;;;;;;3.78;2.97;;;;;;;8.27;90.29;97174.69;5046713;28;20084;-65
2022/09/23 05:16:26;;;;;;;4.60;3.00;;;;;;;8.27;87.62;97141.56;5043271;28;20057;-65
2022/09/23 05:18:53;;;;;;;5.38;2.85;;;;;;;8.78;87.37;97162.66;5046633;28;20049;-65
2022/09/23 05:21:23;;;;;;;4.15;3.45;;;;;;;8.95;86.38;97173.34;5046912;28;20057;-65
2022/09/23 05:23:55;;;;;;;3.75;3.05;;;;;;;9.03;85.89;97169.63;5045330;28;20159;-66
2022/09/23 05:26:24;;;;;;;5.97;4.00;;;;;;;8.88;85.17;97110.44;5045290;28;20053;-65
2022/09/23 05:28:52;;;;;;;6.00;3.83;;;;;;;9.38;83.75;97164.13;5046711;28;20052;-66
2022/09/23 05:31:21;;;;;;;4.07;3.47;;;;;;;9.43;84.34;97167.44;5046918;28;20135;-65
2022/09/23 05:33:51;;;;;;;4.95;3.63;;;;;;;9.44;84.01;97146.91;5046558;28;20447;-66
2022/09/23 05:36:20;;;;;;;8.95;3.25;;;;;;;9.59;83.63;97175.69;5045791;28;20101;-66
2022/09/23 05:38:48;;;;;;;5.65;4.03;;;;;;;9.20;82.75;97053.16;5044988;28;20049;-65
2022/09/23 05:41:16;;;;;;;6.82;3.83;;;;;;;10.05;81.19;97169.22;5046838;28;20049;-66
2022/09/23 05:43:43;;;;;;;6.50;3.35;;;;;;;9.87;80.90;97141.16;5046160;28;20080;-66
2022/09/23 05:46:15;;;;;;;5.20;3.25;;;;;;;9.05;80.14;96998.75;5044841;28;20157;-61
2022/09/23 05:48:44;;;;;;;3.38;2.97;;;;;;;10.30;80.92;97179.66;5042009;28;20597;-66
2022/09/23 05:51:19;;;;;;;4.10;2.70;;;;;;;10.48;79.74;97157.81;5026322;28;20057;-71
2022/09/23 05:53:47;;;;;;;2.97;2.67;;;;;;;10.61;78.20;97159.28;5038887;28;20131;-63
2022/09/23 05:56:16;;;;;;;3.53;2.50;;;;;;;9.80;77.71;97038.66;5038304;28;20131;-66
2022/09/23 05:58:44;;;;;;;3.67;2.63;;;;;;;10.79;76.62;97163.19;5041621;28;20080;-72
2022/09/23 06:01:25;;;;;;;7.00;3.03;;;;;;;10.91;76.33;97182.38;5045566;28;20056;-72
2022/09/23 06:03:53;;;;;;;5.88;3.72;;;;;;;10.66;77.81;97154.25;5045879;28;20056;-64
2022/09/23 06:06:26;;;;;;;7.07;3.80;;;;;;;10.08;78.58;97055.84;5045769;28;20111;-62
2022/09/23 06:08:53;;;;;;;6.13;4.35;;;;;;;9.34;81.86;97036.91;5045763;28;20127;-61
2022/09/23 06:11:20;;;;;;;9.38;4.25;;;;;;;10.14;83.25;97144.91;5043993;28;20537;-63
2022/09/23 06:13:48;;;;;;;5.80;4.25;;;;;;;8.40;81.18;96811.94;5055579;28;20241;-65
2022/09/23 06:16:15;;;;;;;10.18;3.55;;;;;;;10.59;82.22;97154.09;5065259;28;20054;-62
2022/09/23 06:18:44;;;;;;;10.02;4.00;;;;;;;11.02;79.96;97152.88;5058123;28;20057;-63
2022/09/23 06:21:15;;;;;;;6.60;4.43;;;;;;;11.38;78.64;97143.19;5045311;28;20113;-62
2022/09/23 06:23:43;;;;;;;5.20;3.78;;;;;;;11.69;77.25;97140.91;5045191;28;20140;-67
2022/09/23 06:26:12;;;;;;;4.50;3.70;;;;;;;10.86;74.23;96965.75;5040179;28;20085;-70
2022/09/23 06:28:40;;;;;;;4.82;3.28;;;;;;;8.76;72.72;96640.28;5025759;28;20123;-69
2022/09/23 06:31:11;;;;;;;4.97;4.38;;;;;;;12.33;72.00;97141.72;5024922;28;20054;-69
2022/09/23 06:33:41;;;;;;;9.18;7.70;;;;;;;12.32;70.84;97090.91;5045460;28;20056;-65
2022/09/23 06:36:08;;;;;;;9.93;7.82;;;;;;;12.19;69.27;97042.38;5061245;28;20088;-61
2022/09/23 06:38:38;;;;;;;8.85;5.90;;;;;;;12.54;68.13;97067.72;5045507;28;20081;-64
2022/09/23 06:41:05;;;;;;;6.18;4.45;;;;;;;13.23;68.57;97144.63;5058729;28;20523;-66
2022/09/23 06:43:32;;;;;;;7.50;3.30;;;;;;;13.02;66.70;97119.44;5050109;28;20131;-71
2022/09/23 06:46:02;;;;;;;11.90;3.22;;;;;;;11.42;66.45;96830.63;5064758;28;20131;-66
2022/09/23 06:48:33;;;;;;;3.42;3.10;;;;;;;13.20;66.00;97142.63;5065291;28;20109;-65
2022/09/23 06:51:01;;;;;;;3.72;3.00;;;;;;;13.02;65.65;97102.75;5048196;28;20132;-67
2022/09/23 06:53:32;;;;;;;5.10;3.22;;;;;;;12.11;67.00;96990.72;5044946;28;20406;-72
2022/09/23 06:56:03;;;;;;;5.00;3.15;;;;;;;13.55;67.07;97136.53;5061346;28;20140;-64
2022/09/23 06:58:31;;;;;;;3.97;3.38;;;;;;;13.22;65.01;97050.44;5062494;28;20491;-65
2022/09/23 07:01:03;;;;;;;4.80;2.67;;;;;;;13.43;65.29;97134.06;5064175;28;20052;-62
2022/09/23 07:03:33;;;;;;;3.42;3.00;;;;;;;13.60;62.97;97139.75;5064686;28;20205;-62
2022/09/23 07:06:01;;;;;;;4.03;3.00;;;;;;;13.29;62.90;97095.78;5062305;28;20139;-70
2022/09/23 07:08:29;;;;;;;3.50;3.10;;;;;;;13.92;61.87;97139.94;5062220;28;20080;-66
2022/09/23 07:10:58;;;;;;;3.17;2.88;;;;;;;13.88;61.31;97077.84;5062551;28;20067;-65
2022/09/23 07:13:25;;;;;;;3.78;2.63;;;;;;;14.12;60.93;97081.94;5043739;28;20037;-74
2022/09/23 07:15:54;;;;;;;4.75;3.78;;;;;;;14.78;60.33;97142.69;5042534;28;20078;-68
2022/09/23 07:18:24;;;;;;;3.42;2.97;;;;;;;15.00;58.86;97144.34;5031282;28;20054;-69
2022/09/23 07:20:52;;;;;;;4.32;3.28;;;;;;;14.08;58.47;96983.66;5039876;28;20610;-69
2022/09/23 07:23:20;;;;;;;3.33;3.13;;;;;;;15.03;56.96;97065.44;5058671;28;20122;-68
2022/09/23 07:25:48;;;;;;;3.90;3.60;;;;;;;15.49;55.42;97105.28;5042510;28;20482;-69
2022/09/23 07:28:15;;;;;;;3.60;3.30;;;;;;;15.44;55.12;97102.09;5043087;28;20063;-64
2022/09/23 07:30:42;;;;;;;3.50;2.90;;;;;;;15.39;54.64;97100.53;5043670;28;20132;-68
2022/09/23 07:33:25;;;;;;;3.63;3.42;;;;;;;15.37;53.41;97013.56;5052159;28;20431;-71
2022/09/23 07:35:58;;;;;;;5.43;4.18;;;;;;;16.08;53.03;97115.53;5050034;28;20558;-66
2022/09/23 07:38:28;;;;;;;3.90;3.60;;;;;;;16.51;52.36;97139.34;5034334;28;20099;-67
2022/09/23 07:41:22;;;;;;;5.10;4.15;;;;;;;16.74;51.36;97140.84;5052634;28;20049;-66
2022/09/23 07:43:51;;;;;;;3.95;3.55;;;;;;;16.93;51.38;97134.75;5061808;28;20080;-68
2022/09/23 07:46:18;;;;;;;3.75;3.45;;;;;;;15.51;49.83;96868.38;5060227;28;20052;-63
2022/09/23 07:48:45;;;;;;;3.60;3.30;;;;;;;16.18;49.14;96977.75;5046999;28;20739;-67
2022/09/23 07:51:24;;;;;;;3.70;3.17;;;;;;;17.04;49.09;97141.06;5043910;28;20052;-65
2022/09/23 07:53:52;;;;;;;3.45;3.15;;;;;;;16.94;48.71;97105.53;5052383;28;20102;-60
2022/09/23 07:56:22;;;;;;;3.13;2.92;;;;;;;15.74;47.95;96893.00;5042508;28;20076;-63
2022/09/23 07:58:58;;;;;;;3.03;2.83;;;;;;;17.25;48.46;97133.28;5047531;28;20127;-61
2022/09/23 08:01:34;;;;;;;4.50;4.03;;;;;;;17.03;48.88;97159.03;5063620;28;20363;-65
2022/09/23 08:04:05;;;;;;;3.72;3.30;;;;;;;17.02;48.04;97135.06;5062351;28;20135;-64
2022/09/23 08:06:32;;;;;;;3.60;3.30;;;;;;;16.23;45.90;96994.06;5055233;28;20080;-67
2022/09/23 08:08:59;;;;;;;3.00;2.80;;;;;;;17.36;45.23;97128.41;5049275;28;20045;-67
2022/09/23 08:11:27;;;;;;;3.60;3.30;;;;;;;17.82;45.30;97133.63;5042814;28;20057;-68
2022/09/23 08:13:53;;;;;;;3.22;3.00;;;;;;;17.46;43.65;97045.53;5043685;28;20492;-67
2022/09/23 08:16:20;;;;;;;3.40;3.10;;;;;;;17.71;43.18;97020.84;5043580;28;20088;-65
2022/09/23 08:18:47;;;;;;;4.43;2.90;;;;;;;18.27;42.42;97098.69;5053779;28;20135;-61
2022/09/23 08:21:21;;;;;;;3.10;2.90;;;;;;;18.45;42.58;97127.34;5041930;28;20131;-64
2022/09/23 08:23:48;;;;;;;3.58;3.38;;;;;;;17.73;42.59;97052.06;5043651;28;20057;-66
2022/09/23 08:26:15;;;;;;;3.47;3.20;;;;;;;17.52;42.61;97001.84;5043498;28;20086;-66
2022/09/23 08:28:47;;;;;;;18.88;11.63;;;;;;;18.06;42.53;97077.31;5044592;28;20509;-59
2022/09/23 08:31:14;;;;;;;13.65;8.27;;;;;;;18.24;42.70;97077.06;5060630;28;20132;-63
2022/09/23 08:33:40;;;;;;;3.22;3.03;;;;;;;18.60;42.64;97128.75;5063483;28;20056;-65
2022/09/23 08:36:07;;;;;;;6.35;3.30;;;;;;;17.93;42.71;97056.63;5063477;28;20082;-71
2022/09/23 08:38:34;;;;;;;4.05;3.50;;;;;;;18.13;42.26;97031.53;5049152;28;20139;-69
2022/09/23 08:41:47;;;;;;;4.05;3.65;;;;;;;18.82;41.68;97102.00;5042925;28;20586;-68
2022/09/23 08:44:33;;;;;;;4.13;3.72;;;;;;;18.61;41.86;97105.09;5043429;28;20088;-65
2022/09/23 08:47:14;;;;;;;3.70;3.40;;;;;;;18.16;41.92;97036.34;5043210;28;20060;-62
2022/09/23 08:49:54;;;;;;;4.43;3.63;;;;;;;19.05;41.37;97118.88;5043854;28;20182;-68
2022/09/23 08:52:33;;;;;;;3.88;3.58;;;;;;;19.08;40.76;97086.34;5031404;28;20160;-60
2022/09/23 08:55:01;;;;;;;3.55;3.20;;;;;;;18.60;39.53;97022.13;5038217;28;20081;-61
2022/09/23 08:57:28;;;;;;;3.80;3.50;;;;;;;18.54;41.34;97101.59;5048991;28;20052;-68
2022/09/23 08:59:55;;;;;;;4.60;4.20;;;;;;;18.24;41.15;97032.19;5062137;28;20132;-65
2022/09/23 09:02:22;;;;;;;3.90;3.50;;;;;;;18.63;40.90;97043.72;5046936;28;20076;-68
2022/09/23 09:05:04;;;;;;;3.70;3.50;;;;;;;18.82;40.09;97023.41;5046935;28;20063;-68
2022/09/23 09:07:34;;;;;;;3.65;3.35;;;;;;;18.82;39.78;96955.22;5046954;28;20136;-66
2022/09/23 09:10:12;;;;;;;4.93;3.73;;;;;;;19.19;39.20;97081.38;5046818;28;20131;-67
2022/09/23 09:13:15;;;;;;;6.10;3.58;;;;;;;19.02;40.19;97083.22;5035533;28;20084;-68
2022/09/23 09:16:05;;;;;;;3.90;3.70;;;;;;;19.45;39.49;97086.19;5046453;28;20107;-68
2022/09/23 09:18:34;;;;;;;3.40;3.20;;;;;;;19.46;38.87;97063.25;5027221;28;20053;-67
2022/09/23 09:21:25;;;;;;;4.00;3.70;;;;;;;19.65;38.34;97091.88;5051540;28;20568;-65
2022/09/23 09:23:58;;;;;;;3.67;3.45;;;;;;;17.63;39.41;96800.84;5066306;28;20121;-67
2022/09/23 09:26:32;;;;;;;4.22;3.92;;;;;;;18.64;42.12;97055.72;5064633;28;20048;-69
2022/09/23 09:29:09;;;;;;;6.47;5.22;;;;;;;18.65;41.65;97013.22;5026440;28;20050;-69
2022/09/23 09:31:56;;;;;;;21.73;9.43;;;;;;;18.23;43.40;97092.31;5032628;28;20053;-61
2022/09/23 09:34:23;;;;;;;7.45;5.15;;;;;;;17.76;44.04;97093.25;5043653;28;20528;-64
2022/09/23 09:37:26;;;;;;;8.18;5.95;;;;;;;14.47;43.99;96602.69;5044224;28;20132;-63
2022/09/23 09:39:52;;;;;;;3.92;3.58;;;;;;;17.12;44.70;97100.63;5059122;28;20131;-70
2022/09/23 09:42:24;;;;;;;5.22;4.00;;;;;;;17.06;45.22;97093.84;5060171;28;20135;-69
2022/09/23 09:44:58;;;;;;;4.50;3.63;;;;;;;17.32;44.97;97098.84;5064859;28;20052;-69
2022/09/23 09:47:45;;;;;;;3.67;3.20;;;;;;;17.61;44.04;97103.00;5064503;28;20045;-67
2022/09/23 09:50:20;;;;;;;4.53;4.13;;;;;;;17.68;43.70;97056.13;5043464;28;20602;-69
2022/09/23 09:52:47;;;;;;;5.13;3.85;;;;;;;18.20;43.68;97104.38;5024544;28;20504;-66
2022/09/23 09:55:27;;;;;;;5.03;4.07;;;;;;;18.00;44.23;97104.19;5025905;28;20054;-65
2022/09/23 09:57:53;;;;;;;4.00;3.70;;;;;;;18.15;43.55;97101.25;5026239;28;20107;-69
2022/09/23 10:00:26;;;;;;;3.70;3.40;;;;;;;18.42;42.76;97105.72;5024196;28;20053;-68
2022/09/23 10:02:58;;;;;;;5.13;3.88;;;;;;;18.73;42.20;97103.72;5025955;28;20099;-65
2022/09/23 10:05:41;;;;;;;4.75;3.53;;;;;;;18.00;42.26;97000.47;5025239;28;20148;-67
2022/09/23 10:08:17;;;;;;;3.20;3.00;;;;;;;17.60;42.97;97110.63;5023980;28;20482;-66
2022/09/23 10:10:54;;;;;;;4.35;3.08;;;;;;;17.69;42.90;97073.69;5025292;28;20132;-65
2022/09/23 10:13:25;;;;;;;3.53;3.22;;;;;;;18.06;42.91;97104.53;5037147;28;20135;-67
2022/09/23 10:15:53;;;;;;;4.13;3.83;;;;;;;17.17;41.75;96976.97;5051440;28;20503;-65
2022/09/23 10:18:33;;;;;;;3.20;3.00;;;;;;;18.28;41.64;97108.69;5042400;28;20064;-66
2022/09/23 10:21:06;;;;;;;3.83;3.53;;;;;;;18.49;41.54;97108.47;5045298;28;20080;-69
2022/09/23 10:23:39;;;;;;;3.58;3.28;;;;;;;18.55;42.68;97109.56;5043145;28;20063;-67
2022/09/23 10:26:10;;;;;;;4.07;3.75;;;;;;;18.01;42.32;97046.13;5042988;28;20111;-66
2022/09/23 10:28:37;;;;;;;3.60;3.30;;;;;;;18.58;43.59;97119.97;5063051;28;20139;-66
2022/09/23 10:31:07;;;;;;;3.28;3.03;;;;;;;18.08;45.21;97079.69;5045880;28;20107;-66
2022/09/23 10:33:40;;;;;;;5.07;4.47;;;;;;;17.39;46.26;97037.16;5043945;28;20512;-66
2022/09/23 10:36:10;;;;;;;6.15;4.13;;;;;;;17.39;46.47;97000.75;5045041;28;20061;-68
2022/09/23 10:38:37;;;;;;;8.98;4.25;;;;;;;18.37;46.01;97113.81;5047238;28;20136;-64
2022/09/23 10:47:36;;;;;;;13.63;4.32;;;;;;;19.40;44.78;97081.84;5046546;28;20050;-63
2022/09/23 10:50:23;;;;;;;3.78;3.47;;;;;;;19.71;42.82;97102.19;5042466;28;20500;-63
2022/09/23 10:53:03;;;;;;;4.88;3.13;;;;;;;19.78;41.87;97092.81;5050275;28;20963;-61
2022/09/23 10:55:53;;;;;;;3.75;3.45;;;;;;;19.92;41.41;97044.75;5043784;28;20045;-64
2022/09/23 10:58:26;;;;;;;3.72;3.40;;;;;;;20.02;41.49;97061.44;5042807;28;20448;-66
2022/09/23 11:01:15;;;;;;;4.18;3.90;;;;;;;19.89;40.68;96950.00;5040629;28;20057;-67
2022/09/23 11:03:47;;;;;;;3.60;3.33;;;;;;;20.79;39.49;97090.78;5051784;28;20147;-62
2022/09/23 11:06:24;;;;;;;3.90;3.65;;;;;;;20.79;39.55;97078.69;5052657;28;20499;-63
2022/09/23 11:09:01;;;;;;;3.72;3.42;;;;;;;20.99;39.74;97076.69;5043608;28;20060;-66
2022/09/23 11:11:46;;;;;;;3.95;3.65;;;;;;;21.21;39.16;97069.31;5042051;28;20084;-64
2022/09/23 11:14:22;;;;;;;6.18;3.83;;;;;;;21.30;38.78;97069.47;5041898;28;20045;-68
2022/09/23 11:17:13;;;;;;;3.90;3.60;;;;;;;20.93;39.31;97075.56;5043811;28;20095;-69
2022/09/23 11:20:11;;;;;;;6.65;3.92;;;;;;;20.52;40.92;97078.09;5044197;28;20059;-68
2022/09/23 11:23:04;;;;;;;5.18;4.68;;;;;;;19.60;46.28;97084.69;5050305;28;20492;-66
2022/09/23 11:25:50;;;;;;;3.97;3.67;;;;;;;18.77;44.53;97037.91;5043926;28;20136;-67
2022/09/23 11:28:28;;;;;;;4.05;3.75;;;;;;;18.51;44.68;97091.97;5036761;28;20053;-72
2022/09/23 11:31:19;;;;;;;3.70;3.40;;;;;;;17.78;46.85;97088.03;5060925;28;20106;-67
2022/09/23 11:33:51;;;;;;;2.97;2.78;;;;;;;17.62;44.48;97091.41;5062676;28;20056;-66
2022/09/23 11:36:25;;;;;;;3.50;3.20;;;;;;;17.68;45.55;97086.13;5063857;28;20597;-60
2022/09/23 11:38:55;;;;;;;3.22;3.03;;;;;;;17.09;47.71;97093.00;5063548;28;20102;-59
2022/09/23 11:41:28;;;;;;;3.58;3.25;;;;;;;15.96;51.46;97062.09;5053066;28;20083;-68
2022/09/23 11:44:03;;;;;;;9.35;6.45;;;;;;;16.06;53.99;97055.69;5046384;28;20165;-74
2022/09/23 11:46:33;;;;;;;10.63;6.90;;;;;;;16.09;54.75;97044.47;5043794;28;20189;-60
2022/09/23 11:49:06;;;;;;;11.90;6.35;;;;;;;16.28;59.60;97097.06;5045746;28;20140;-60
2022/09/23 11:51:57;;;;;;;4.95;3.80;;;;;;;16.10;63.69;97099.16;5060766;28;20071;-60
2022/09/23 11:54:33;;;;;;;3.45;3.00;;;;;;;15.53;64.91;97019.53;5053590;28;20111;-64
2022/09/23 11:57:05;;;;;;;4.80;3.47;;;;;;;16.20;67.19;97106.69;5020774;28;20107;-67
2022/09/23 11:59:36;;;;;;;6.95;3.90;;;;;;;15.82;68.32;97106.84;5032337;28;20080;-64
2022/09/23 12:02:32;;;;;;;8.43;5.88;;;;;;;15.72;76.66;97107.66;5044590;28;20478;-63
2022/09/23 12:05:21;;;;;;;5.45;4.20;;;;;;;15.55;74.11;97064.63;5039951;28;20120;-62
2022/09/23 12:08:03;;;;;;;3.72;3.42;;;;;;;16.25;72.82;97095.09;5045791;28;20121;-68
2022/09/23 12:11:05;;;;;;;3.10;2.80;;;;;;;16.36;64.59;97093.03;5057996;28;20045;-64
2022/09/23 12:14:07;;;;;;;3.40;3.10;;;;;;;16.86;68.26;97076.00;5032758;28;20084;-72